Time;durP1;ratioP1;P1;durP2;ratioP2;P2;SDS_P1;SDS_P2;PMS_P1;PMS_P2;Temp;Humidity;BMP_temperature;BMP_pressure;BME280_temperature;BME280_humidity;BME280_pressure;Samples;Min_cycle;Max_cycle;Signal;HPM_P1;HPM_P2
2023/12/17 00:01:05;;;;;;;8.52;5.05;;;3.60;99.90;;;;;;5020191;28;20024;-64
2023/12/17 00:03:31;;;;;;;14.05;5.72;;;3.60;99.90;;;;;;5020191;28;20036;-63
2023/12/17 00:05:56;;;;;;;13.45;5.88;;;3.60;99.90;;;;;;5019494;28;20030;-63
2023/12/17 00:08:22;;;;;;;14.70;5.82;;;3.60;99.90;;;;;;5017617;28;20026;-63
2023/12/17 00:10:54;;;;;;;6.63;5.22;;;3.50;99.90;;;;;;5018247;28;20091;-63
2023/12/17 00:13:20;;;;;;;12.40;5.45;;;3.40;99.90;;;;;;5019399;28;20026;-64
2023/12/17 00:15:45;;;;;;;8.07;5.72;;;3.30;99.90;;;;;;5018231;28;20018;-62
2023/12/17 00:18:12;;;;;;;12.63;7.00;;;3.20;99.90;;;;;;5017146;28;20026;-63
2023/12/17 00:20:38;;;;;;;14.85;7.20;;;3.10;99.90;;;;;;5018566;28;20076;-63
2023/12/17 00:23:04;;;;;;;18.83;6.60;;;3.10;99.90;;;;;;5018099;28;20029;-63
2023/12/17 00:25:30;;;;;;;10.68;6.55;;;3.00;99.90;;;;;;5019380;28;20033;-63
2023/12/17 00:27:56;;;;;;;10.07;5.70;;;2.90;99.90;;;;;;5020315;28;20046;-63
2023/12/17 00:30:22;;;;;;;11.63;6.60;;;2.70;99.90;;;;;;5022163;28;20053;-63
2023/12/17 00:32:48;;;;;;;7.32;6.20;;;2.70;99.90;;;;;;5020420;28;20014;-64
2023/12/17 00:35:13;;;;;;;14.95;7.72;;;2.60;99.90;;;;;;5018961;28;20056;-63
2023/12/17 00:37:39;;;;;;;14.30;7.00;;;2.60;99.90;;;;;;5019643;28;20532;-63
2023/12/17 00:40:06;;;;;;;11.32;6.35;;;2.60;99.90;;;;;;5016534;28;20041;-63
2023/12/17 00:42:32;;;;;;;9.88;6.20;;;2.50;99.90;;;;;;5017385;28;20029;-63
2023/12/17 00:44:58;;;;;;;12.65;7.10;;;2.50;99.90;;;;;;5018185;28;20033;-63
2023/12/17 00:47:23;;;;;;;14.93;6.55;;;2.40;99.90;;;;;;5016333;28;20075;-63
2023/12/17 00:49:49;;;;;;;9.40;7.38;;;2.40;99.90;;;;;;5017055;28;20018;-63
2023/12/17 00:52:15;;;;;;;17.77;7.18;;;2.40;99.90;;;;;;5022553;28;20366;-64
2023/12/17 00:54:40;;;;;;;10.85;6.35;;;2.40;99.90;;;;;;5016344;28;20030;-63
2023/12/17 00:57:06;;;;;;;12.93;6.85;;;2.40;99.90;;;;;;5021806;28;20400;-62
2023/12/17 00:59:31;;;;;;;8.90;7.13;;;2.40;99.90;;;;;;5021528;28;20025;-63
2023/12/17 01:01:57;;;;;;;13.70;7.13;;;2.40;99.90;;;;;;5018009;28;20444;-63
2023/12/17 01:04:22;;;;;;;15.30;6.80;;;2.30;99.90;;;;;;5017117;28;20080;-63
2023/12/17 01:06:48;;;;;;;14.75;9.50;;;2.30;99.90;;;;;;5015703;28;20141;-64
2023/12/17 01:09:14;;;;;;;13.68;8.13;;;2.30;99.90;;;;;;5018015;28;20484;-63
2023/12/17 01:11:39;;;;;;;9.88;7.38;;;2.30;99.90;;;;;;5019798;28;20026;-65
2023/12/17 01:14:05;;;;;;;12.20;7.25;;;2.30;99.90;;;;;;5013800;28;20030;-64
2023/12/17 01:16:31;;;;;;;12.18;7.05;;;2.30;99.90;;;;;;5016687;28;20183;-64
2023/12/17 01:18:56;;;;;;;13.65;6.93;;;2.20;99.90;;;;;;5015901;28;20017;-64
2023/12/17 01:21:22;;;;;;;14.40;7.13;;;2.20;99.90;;;;;;5018764;28;20021;-63
2023/12/17 01:23:48;;;;;;;16.23;7.75;;;2.20;99.90;;;;;;5019572;28;20377;-63
2023/12/17 01:26:22;;;;;;;15.00;8.10;;;2.20;99.90;;;;;;5018544;28;20022;-64
2023/12/17 01:28:49;;;;;;;12.82;6.50;;;2.20;99.90;;;;;;5017042;28;20094;-64
2023/12/17 01:31:15;;;;;;;11.82;7.20;;;2.10;99.90;;;;;;5019461;28;20488;-63
2023/12/17 01:33:41;;;;;;;14.80;7.70;;;2.10;99.90;;;;;;5016742;28;20022;-64
2023/12/17 01:36:07;;;;;;;11.68;7.70;;;2.10;99.90;;;;;;5018801;28;20029;-63
2023/12/17 01:38:33;;;;;;;14.55;6.80;;;2.10;99.90;;;;;;5016852;28;20033;-64
2023/12/17 01:40:58;;;;;;;17.92;7.45;;;2.10;99.90;;;;;;5016370;28;20095;-63
2023/12/17 01:43:24;;;;;;;13.10;6.95;;;2.20;99.90;;;;;;5018644;28;20030;-63
2023/12/17 01:45:52;;;;;;;9.25;6.20;;;2.20;99.90;;;;;;5019066;28;20022;-64
2023/12/17 01:48:18;;;;;;;9.35;5.75;;;2.20;99.90;;;;;;5017024;28;20083;-64
2023/12/17 01:50:44;;;;;;;10.02;6.55;;;2.20;99.90;;;;;;5016610;28;20037;-64
2023/12/17 01:53:10;;;;;;;10.82;6.07;;;2.20;99.90;;;;;;5018963;28;20028;-63
2023/12/17 01:55:36;;;;;;;11.07;5.70;;;2.00;99.90;;;;;;5017048;28;20045;-63
2023/12/17 01:58:02;;;;;;;9.75;5.65;;;1.90;99.90;;;;;;5016580;28;20059;-63
2023/12/17 02:00:29;;;;;;;15.30;7.85;;;1.90;99.90;;;;;;5019354;28;20438;-63
2023/12/17 02:02:54;;;;;;;18.60;8.00;;;1.80;99.90;;;;;;5015773;28;20060;-64
2023/12/17 02:05:20;;;;;;;9.65;5.53;;;1.70;99.90;;;;;;5012138;28;20046;-63
2023/12/17 02:07:46;;;;;;;9.23;6.88;;;1.60;99.90;;;;;;5017212;28;20036;-62
2023/12/17 02:10:12;;;;;;;12.50;6.78;;;1.60;99.90;;;;;;5019381;28;20080;-63
2023/12/17 02:12:37;;;;;;;10.82;6.40;;;1.50;99.90;;;;;;5016524;28;20021;-63
2023/12/17 02:15:03;;;;;;;9.82;6.22;;;1.50;99.90;;;;;;5018556;28;20022;-63
2023/12/17 02:17:31;;;;;;;9.23;6.15;;;1.50;99.90;;;;;;5016502;28;20068;-63
2023/12/17 02:19:57;;;;;;;14.48;7.00;;;1.40;99.90;;;;;;5016116;28;20537;-63
2023/12/17 02:22:23;;;;;;;11.43;6.97;;;1.40;99.90;;;;;;5017685;28;20099;-63
2023/12/17 02:24:50;;;;;;;10.05;7.13;;;1.30;99.90;;;;;;5014755;28;20501;-62
2023/12/17 02:27:23;;;;;;;10.52;7.00;;;1.30;99.90;;;;;;5014294;28;20037;-63
2023/12/17 02:29:50;;;;;;;12.15;7.00;;;1.30;99.90;;;;;;5015044;28;20037;-63
2023/12/17 02:32:17;;;;;;;12.15;6.45;;;1.20;99.90;;;;;;5014605;28;20038;-64
2023/12/17 02:34:43;;;;;;;9.52;6.57;;;1.20;99.90;;;;;;5015655;28;20030;-60
2023/12/17 02:37:09;;;;;;;13.40;6.00;;;1.20;99.90;;;;;;5017543;28;20038;-63
2023/12/17 02:39:34;;;;;;;16.55;7.07;;;1.10;99.90;;;;;;5018269;28;20028;-63
2023/12/17 02:42:00;;;;;;;10.80;7.25;;;1.10;99.90;;;;;;5015163;28;20032;-63
2023/12/17 02:44:26;;;;;;;15.57;8.05;;;1.00;99.90;;;;;;5017538;28;20033;-63
2023/12/17 02:46:51;;;;;;;12.05;7.35;;;1.00;99.90;;;;;;5016346;28;20046;-63
2023/12/17 02:49:17;;;;;;;15.02;7.25;;;0.90;99.90;;;;;;5018226;28;20026;-63
2023/12/17 02:51:43;;;;;;;10.68;7.25;;;0.90;99.90;;;;;;5018333;28;20026;-61
2023/12/17 02:54:09;;;;;;;11.02;7.75;;;0.90;99.90;;;;;;5014891;28;20536;-63
2023/12/17 02:56:41;;;;;;;17.20;8.65;;;0.90;99.90;;;;;;5016954;28;20099;-63
2023/12/17 02:59:11;;;;;;;22.30;12.43;;;0.90;99.90;;;;;;5017775;28;20057;-63
2023/12/17 03:01:37;;;;;;;32.22;14.05;;;0.90;99.90;;;;;;5016882;28;20039;-63
2023/12/17 03:04:03;;;;;;;33.05;18.85;;;0.90;99.90;;;;;;5014221;28;20037;-63
2023/12/17 03:06:29;;;;;;;17.10;11.38;;;0.90;99.90;;;;;;5016198;28;20030;-63
2023/12/17 03:08:55;;;;;;;22.42;11.18;;;0.90;99.90;;;;;;5015128;28;20081;-64
2023/12/17 03:11:21;;;;;;;16.45;10.40;;;0.90;99.90;;;;;;5013346;28;20026;-63
2023/12/17 03:13:46;;;;;;;18.48;9.88;;;0.90;99.90;;;;;;5016537;28;20041;-62
2023/12/17 03:16:12;;;;;;;15.70;8.68;;;0.90;99.90;;;;;;5021720;28;20025;-62
2023/12/17 03:18:38;;;;;;;21.92;9.30;;;0.90;99.90;;;;;;5023005;28;20100;-63
2023/12/17 03:21:05;;;;;;;20.35;10.77;;;0.80;99.90;;;;;;5021262;28;20113;-63
2023/12/17 03:23:31;;;;;;;18.27;10.38;;;0.90;99.90;;;;;;5019627;28;20122;-63
2023/12/17 03:25:57;;;;;;;17.98;10.20;;;0.90;99.90;;;;;;5021136;28;20469;-64
2023/12/17 03:28:22;;;;;;;18.83;10.48;;;0.80;99.90;;;;;;5021504;28;20049;-63
2023/12/17 03:30:48;;;;;;;20.48;10.55;;;0.80;99.90;;;;;;5022194;28;20033;-63
2023/12/17 03:33:13;;;;;;;19.90;10.23;;;0.80;99.90;;;;;;5019037;28;20554;-63
2023/12/17 03:35:39;;;;;;;22.90;12.57;;;0.80;99.90;;;;;;5020692;28;20038;-63
2023/12/17 03:38:05;;;;;;;15.35;9.52;;;0.80;99.90;;;;;;5018754;28;20068;-64
2023/12/17 03:40:31;;;;;;;23.20;10.40;;;0.80;99.90;;;;;;5020448;28;20120;-63
2023/12/17 03:42:57;;;;;;;22.08;10.18;;;0.70;99.90;;;;;;5021481;28;20136;-63
2023/12/17 03:45:23;;;;;;;15.63;10.10;;;0.70;99.90;;;;;;5017836;28;20053;-63
2023/12/17 03:47:49;;;;;;;20.02;9.95;;;0.70;99.90;;;;;;5020556;28;20033;-63
2023/12/17 03:50:16;;;;;;;22.60;10.13;;;0.70;99.90;;;;;;5018171;28;20036;-64
2023/12/17 03:52:43;;;;;;;13.23;9.20;;;0.70;99.90;;;;;;5020630;28;20397;-64
2023/12/17 03:55:09;;;;;;;15.52;10.10;;;0.70;99.90;;;;;;5023170;28;20108;-61
2023/12/17 03:57:34;;;;;;;15.18;10.45;;;0.70;99.90;;;;;;5018909;28;20106;-63
2023/12/17 04:00:01;;;;;;;21.80;10.55;;;0.70;99.90;;;;;;5018342;28;20025;-63
2023/12/17 04:02:27;;;;;;;16.20;10.82;;;0.60;99.90;;;;;;5014960;28;20030;-64
2023/12/17 04:04:53;;;;;;;20.83;11.55;;;0.70;99.90;;;;;;5017859;28;20021;-63
2023/12/17 04:07:18;;;;;;;24.08;11.05;;;0.60;99.90;;;;;;5021535;28;20038;-63
2023/12/17 04:09:44;;;;;;;22.17;12.13;;;0.70;99.90;;;;;;5019655;28;20010;-63
2023/12/17 04:12:10;;;;;;;27.08;11.45;;;0.70;99.90;;;;;;5020618;28;20477;-64
2023/12/17 04:14:35;;;;;;;22.85;12.25;;;0.70;99.90;;;;;;5019311;28;20034;-63
2023/12/17 04:17:01;;;;;;;21.33;11.40;;;0.70;99.90;;;;;;5014961;28;20422;-62
2023/12/17 04:19:27;;;;;;;19.17;12.07;;;0.60;99.90;;;;;;5019757;28;20497;-63
2023/12/17 04:21:52;;;;;;;25.60;11.88;;;0.60;99.90;;;;;;5022556;28;20018;-63
2023/12/17 04:24:18;;;;;;;22.98;11.50;;;0.50;99.90;;;;;;5019944;28;20112;-63
2023/12/17 04:26:44;;;;;;;18.95;10.75;;;0.60;99.90;;;;;;5020418;28;20034;-63
2023/12/17 04:29:09;;;;;;;17.70;10.93;;;0.60;99.90;;;;;;5017543;28;20033;-63
2023/12/17 04:31:35;;;;;;;21.83;10.23;;;0.60;99.90;;;;;;5021561;28;20032;-63
2023/12/17 04:34:01;;;;;;;22.33;10.25;;;0.60;99.90;;;;;;5021046;28;20052;-63
2023/12/17 04:36:26;;;;;;;23.77;10.80;;;0.60;99.90;;;;;;5016772;28;20040;-63
2023/12/17 04:38:52;;;;;;;19.48;11.45;;;0.50;99.90;;;;;;5019491;28;20018;-63
2023/12/17 04:41:17;;;;;;;14.85;10.45;;;0.50;99.90;;;;;;5022724;28;20029;-63
2023/12/17 04:43:43;;;;;;;26.42;10.73;;;0.50;99.90;;;;;;5017842;28;20030;-63
2023/12/17 04:46:09;;;;;;;16.73;11.18;;;0.50;99.90;;;;;;5016466;28;20485;-63
2023/12/17 04:48:35;;;;;;;15.88;11.88;;;0.50;99.90;;;;;;5020826;28;20076;-63
2023/12/17 04:51:00;;;;;;;26.98;11.20;;;0.40;99.90;;;;;;5020970;28;20025;-63
2023/12/17 04:53:26;;;;;;;21.48;12.32;;;0.40;99.90;;;;;;5016793;28;20557;-62
2023/12/17 04:55:52;;;;;;;21.95;11.98;;;0.40;99.90;;;;;;5018525;28;20484;-63
2023/12/17 04:58:17;;;;;;;22.15;12.75;;;0.40;99.90;;;;;;5019741;28;20025;-63
2023/12/17 05:00:43;;;;;;;23.08;12.75;;;0.40;99.90;;;;;;5019262;28;20021;-63
2023/12/17 05:03:09;;;;;;;33.22;14.10;;;0.40;99.90;;;;;;5019680;28;20014;-63
2023/12/17 05:05:35;;;;;;;34.95;16.13;;;0.40;99.90;;;;;;5018306;28;20038;-63
2023/12/17 05:08:00;;;;;;;34.35;15.07;;;0.40;99.90;;;;;;5021511;28;20101;-63
2023/12/17 05:10:27;;;;;;;52.58;19.27;;;0.40;99.90;;;;;;5018030;28;20518;-63
2023/12/17 05:12:55;;;;;;;54.78;20.77;;;0.40;99.90;;;;;;5019786;28;20021;-63
2023/12/17 05:15:22;;;;;;;44.67;19.02;;;0.40;99.90;;;;;;5017774;28;20018;-63
2023/12/17 05:17:48;;;;;;;35.45;15.98;;;0.40;99.90;;;;;;5019796;28;20113;-63
2023/12/17 05:20:13;;;;;;;37.15;16.25;;;0.40;99.90;;;;;;5034473;28;20138;-63
2023/12/17 05:22:39;;;;;;;23.05;13.30;;;0.40;99.90;;;;;;5016716;28;20049;-63
2023/12/17 05:25:05;;;;;;;35.78;14.45;;;0.40;99.90;;;;;;5015430;28;20045;-64
2023/12/17 05:27:31;;;;;;;32.40;12.88;;;0.40;99.90;;;;;;5017944;28;20022;-64
2023/12/17 05:29:56;;;;;;;26.60;12.80;;;0.40;99.90;;;;;;5019215;28;20083;-63
2023/12/17 05:32:22;;;;;;;24.50;13.60;;;0.40;99.90;;;;;;5018472;28;20026;-63
2023/12/17 05:34:47;;;;;;;29.70;12.50;;;0.40;99.90;;;;;;5015934;28;20026;-63
2023/12/17 05:37:13;;;;;;;25.55;12.00;;;0.40;99.90;;;;;;5019936;28;20083;-63
2023/12/17 05:39:39;;;;;;;28.98;13.38;;;0.30;99.90;;;;;;5016761;28;20018;-63
2023/12/17 05:42:04;;;;;;;22.08;12.38;;;0.30;99.90;;;;;;5017584;28;20101;-63
2023/12/17 05:44:30;;;;;;;31.73;14.77;;;0.30;99.90;;;;;;5018447;28;20075;-63
2023/12/17 05:46:56;;;;;;;42.47;18.50;;;0.30;99.90;;;;;;5018259;28;20935;-63
2023/12/17 05:49:21;;;;;;;36.00;16.08;;;0.30;99.90;;;;;;5014650;28;20037;-63
2023/12/17 05:51:48;;;;;;;28.23;14.68;;;0.30;99.90;;;;;;5018253;28;20103;-62
2023/12/17 05:54:13;;;;;;;33.95;16.13;;;0.30;99.90;;;;;;5015554;28;20030;-63
2023/12/17 05:56:43;;;;;;;28.33;14.52;;;0.30;99.90;;;;;;5016309;28;20029;-63
2023/12/17 05:59:10;;;;;;;40.80;18.45;;;0.20;99.90;;;;;;5018064;28;20112;-63
2023/12/17 06:01:36;;;;;;;34.88;17.65;;;0.30;99.90;;;;;;5018442;28;20038;-63
2023/12/17 06:04:02;;;;;;;50.20;24.25;;;0.20;99.90;;;;;;5019217;28;20056;-64
2023/12/17 06:06:28;;;;;;;44.63;21.17;;;0.20;99.90;;;;;;5016246;28;20033;-63
2023/12/17 06:08:53;;;;;;;30.10;16.75;;;0.20;99.90;;;;;;5017745;28;20141;-63
2023/12/17 06:11:19;;;;;;;25.02;13.07;;;0.20;99.90;;;;;;5019291;28;20033;-63
2023/12/17 06:13:45;;;;;;;20.00;13.20;;;0.20;99.90;;;;;;5019192;28;20030;-63
2023/12/17 06:16:12;;;;;;;20.50;12.77;;;0.10;99.90;;;;;;5017417;28;20072;-63
2023/12/17 06:18:38;;;;;;;33.83;14.63;;;0.10;99.90;;;;;;5018913;28;20112;-63
2023/12/17 06:21:05;;;;;;;23.92;14.32;;;0.10;99.90;;;;;;5017728;28;20037;-63
2023/12/17 06:23:31;;;;;;;23.42;12.52;;;0.00;99.90;;;;;;5017337;28;20073;-63
2023/12/17 06:25:57;;;;;;;20.40;13.93;;;0.00;99.90;;;;;;5017390;28;20040;-64
2023/12/17 06:28:24;;;;;;;29.92;14.15;;;0.00;99.90;;;;;;5017042;28;20029;-66
2023/12/17 06:30:50;;;;;;;24.42;13.10;;;0.00;99.90;;;;;;5017819;28;20041;-63
2023/12/17 06:33:16;;;;;;;24.88;12.93;;;0.00;99.90;;;;;;5013723;28;20521;-63
2023/12/17 06:35:44;;;;;;;28.95;14.15;;;0.00;99.90;;;;;;5017433;28;20033;-63
2023/12/17 06:38:09;;;;;;;39.42;18.77;;;0.00;99.90;;;;;;5016831;28;20033;-63
2023/12/17 06:40:35;;;;;;;60.13;26.73;;;0.00;99.90;;;;;;5016110;28;20505;-63
2023/12/17 06:43:00;;;;;;;81.97;33.47;;;0.00;99.90;;;;;;5017047;28;20022;-63
2023/12/17 06:45:26;;;;;;;64.53;27.98;;;0.00;99.90;;;;;;5016276;28;20026;-62
2023/12/17 06:47:52;;;;;;;68.20;27.55;;;0.00;99.90;;;;;;5015472;28;20576;-63
2023/12/17 06:50:17;;;;;;;41.95;18.77;;;0.00;99.90;;;;;;5021983;28;20034;-63
2023/12/17 06:52:43;;;;;;;38.85;18.95;;;-0.10;99.90;;;;;;5022078;28;20037;-62
2023/12/17 06:55:09;;;;;;;29.83;17.88;;;-0.10;99.90;;;;;;5019859;28;20478;-62
2023/12/17 06:57:35;;;;;;;39.88;17.55;;;-0.10;99.90;;;;;;5022765;28;20037;-63
2023/12/17 07:00:01;;;;;;;33.78;16.88;;;-0.10;99.90;;;;;;5023199;28;20045;-63
2023/12/17 07:02:27;;;;;;;28.17;14.43;;;-0.10;99.90;;;;;;5021599;28;20030;-62
2023/12/17 07:04:52;;;;;;;23.02;13.68;;;-0.20;99.90;;;;;;5021771;28;20521;-62
2023/12/17 07:07:21;;;;;;;20.70;12.02;;;-0.20;99.90;;;;;;5020224;28;20048;-62
2023/12/17 07:09:46;;;;;;;24.70;12.95;;;-0.20;99.90;;;;;;5019191;28;20029;-61
2023/12/17 07:12:12;;;;;;;37.67;14.68;;;-0.20;99.90;;;;;;5021080;28;20025;-62
2023/12/17 07:14:38;;;;;;;26.67;14.48;;;-0.20;99.90;;;;;;5021228;28;20501;-63
2023/12/17 07:17:03;;;;;;;33.58;15.82;;;-0.10;99.90;;;;;;5022054;28;20041;-62
2023/12/17 07:19:29;;;;;;;39.72;15.07;;;-0.10;99.90;;;;;;5020901;28;20048;-63
2023/12/17 07:21:54;;;;;;;25.88;14.27;;;-0.10;99.90;;;;;;5019814;28;20611;-63
2023/12/17 07:24:20;;;;;;;33.40;14.73;;;0.00;99.90;;;;;;5021511;28;20177;-61
2023/12/17 07:26:48;;;;;;;32.33;13.00;;;0.00;99.90;;;;;;5021446;28;20434;-62
2023/12/17 07:29:13;;;;;;;22.48;13.70;;;0.00;99.90;;;;;;5022304;28;20026;-63
2023/12/17 07:31:39;;;;;;;27.02;13.32;;;-0.10;99.90;;;;;;5021110;28;20040;-62
2023/12/17 07:34:05;;;;;;;30.15;14.93;;;-0.10;99.90;;;;;;5021172;28;20497;-62
2023/12/17 07:36:30;;;;;;;25.10;13.77;;;0.00;99.90;;;;;;5022333;28;20191;-63
2023/12/17 07:38:56;;;;;;;24.42;15.07;;;0.00;99.90;;;;;;5018797;28;20405;-62
2023/12/17 07:41:21;;;;;;;28.17;14.70;;;0.00;99.90;;;;;;5018822;28;20029;-63
2023/12/17 07:43:47;;;;;;;25.83;14.55;;;0.00;99.90;;;;;;5017454;28;20120;-62
2023/12/17 07:46:13;;;;;;;27.42;14.80;;;0.10;99.90;;;;;;5017375;28;20018;-63
2023/12/17 07:48:38;;;;;;;23.52;14.85;;;0.10;99.90;;;;;;5019688;28;20224;-63
2023/12/17 07:51:04;;;;;;;36.30;16.45;;;0.20;99.90;;;;;;5020135;28;20030;-63
2023/12/17 07:53:30;;;;;;;24.90;14.43;;;0.20;99.90;;;;;;5020049;28;20041;-63
2023/12/17 07:55:57;;;;;;;34.45;17.10;;;0.30;99.90;;;;;;5021497;28;20059;-63
2023/12/17 07:58:24;;;;;;;26.27;15.30;;;0.30;99.90;;;;;;5021394;28;20040;-62
2023/12/17 08:00:51;;;;;;;35.63;17.23;;;0.40;99.90;;;;;;5019785;28;20112;-62
2023/12/17 08:03:17;;;;;;;35.55;17.13;;;0.50;99.90;;;;;;5019358;28;20030;-62
2023/12/17 08:05:42;;;;;;;33.80;16.63;;;0.50;99.90;;;;;;5018420;28;20409;-63
2023/12/17 08:08:08;;;;;;;86.07;36.35;;;0.60;99.90;;;;;;5017614;28;20076;-62
2023/12/17 08:10:34;;;;;;;40.63;18.90;;;0.70;99.90;;;;;;5020953;28;20033;-63
2023/12/17 08:12:59;;;;;;;25.92;14.90;;;0.70;99.90;;;;;;5020323;28;20067;-62
2023/12/17 08:15:25;;;;;;;23.83;14.02;;;0.80;99.90;;;;;;5014633;28;20521;-62
2023/12/17 08:17:50;;;;;;;25.42;14.38;;;0.90;99.90;;;;;;5019246;28;20033;-62
2023/12/17 08:20:17;;;;;;;20.85;13.55;;;0.90;99.90;;;;;;5015463;28;20037;-62
2023/12/17 08:22:43;;;;;;;28.08;14.05;;;1.00;99.90;;;;;;5019427;28;20167;-63
2023/12/17 08:25:09;;;;;;;26.60;16.08;;;1.10;99.90;;;;;;5018009;28;20100;-62
2023/12/17 08:27:34;;;;;;;24.83;14.38;;;1.10;99.90;;;;;;5019642;28;20520;-62
2023/12/17 08:30:00;;;;;;;20.90;13.55;;;1.10;99.90;;;;;;5017616;28;20509;-62
2023/12/17 08:32:31;;;;;;;26.02;14.05;;;1.20;99.90;;;;;;5017270;28;20044;-61
2023/12/17 08:34:58;;;;;;;32.30;14.40;;;1.20;99.90;;;;;;5023546;28;20466;-63
2023/12/17 08:37:26;;;;;;;21.63;13.38;;;1.20;99.90;;;;;;5016387;28;20040;-62
2023/12/17 08:39:52;;;;;;;24.17;13.00;;;1.30;99.90;;;;;;5024966;28;20139;-62
2023/12/17 08:42:18;;;;;;;28.65;14.18;;;1.30;99.90;;;;;;5022846;28;20033;-62
2023/12/17 08:44:45;;;;;;;24.00;14.82;;;1.40;99.90;;;;;;5016367;28;20441;-61
2023/12/17 08:47:11;;;;;;;29.75;14.25;;;1.50;99.90;;;;;;5017077;28;20021;-63
2023/12/17 08:49:37;;;;;;;21.90;13.82;;;1.60;99.90;;;;;;5019095;28;20038;-63
2023/12/17 08:52:02;;;;;;;22.75;13.70;;;1.60;99.90;;;;;;5018568;28;20108;-62
2023/12/17 08:54:28;;;;;;;26.27;15.32;;;1.70;99.90;;;;;;5020235;28;20028;-62
2023/12/17 08:56:53;;;;;;;19.35;14.25;;;1.80;99.90;;;;;;5015817;28;20062;-62
2023/12/17 08:59:19;;;;;;;26.50;13.48;;;1.90;99.90;;;;;;5014618;28;20486;-63
2023/12/17 09:01:45;;;;;;;19.85;14.20;;;2.00;99.90;;;;;;5015334;28;20034;-62
2023/12/17 09:04:10;;;;;;;22.38;14.20;;;2.10;99.90;;;;;;5020033;28;20083;-63
2023/12/17 09:06:46;;;;;;;16.25;12.85;;;2.30;99.90;;;;;;5017977;28;20041;-62
2023/12/17 09:09:13;;;;;;;16.20;11.63;;;2.50;99.90;;;;;;5017422;28;20029;-63
2023/12/17 09:11:39;;;;;;;22.05;12.48;;;2.70;99.90;;;;;;5017769;28;20521;-63
2023/12/17 09:14:07;;;;;;;15.55;12.02;;;3.00;99.90;;;;;;5014415;28;20058;-63
2023/12/17 09:16:33;;;;;;;16.13;10.48;;;3.50;99.90;;;;;;5012223;28;20053;-63
2023/12/17 09:18:59;;;;;;;11.88;9.77;;;4.00;99.90;;;;;;5015463;28;20022;-64
2023/12/17 09:21:25;;;;;;;9.38;8.18;;;4.50;99.90;;;;;;5014997;28;20579;-63
2023/12/17 09:23:51;;;;;;;11.07;9.43;;;5.00;99.90;;;;;;5016982;28;20474;-63
2023/12/17 09:26:18;;;;;;;9.40;8.50;;;5.60;99.90;;;;;;5017331;28;20032;-63
2023/12/17 09:28:44;;;;;;;12.30;9.88;;;6.10;99.90;;;;;;5017566;28;20481;-64
2023/12/17 09:31:10;;;;;;;8.40;7.63;;;6.60;99.90;;;;;;5020262;28;20017;-64
2023/12/17 09:33:37;;;;;;;9.43;8.35;;;7.00;99.90;;;;;;5019043;28;20018;-64
2023/12/17 09:36:04;;;;;;;11.07;8.20;;;7.50;99.90;;;;;;5014643;28;20117;-63
2023/12/17 09:38:30;;;;;;;7.90;7.10;;;7.80;99.90;;;;;;5016227;28;20559;-64
2023/12/17 09:40:55;;;;;;;9.38;7.68;;;8.00;99.90;;;;;;5014990;28;20034;-63
2023/12/17 09:43:24;;;;;;;11.95;8.18;;;7.90;99.90;;;;;;5018334;28;20033;-64
2023/12/17 09:45:51;;;;;;;9.20;8.23;;;8.10;99.90;;;;;;5018062;28;20032;-64
2023/12/17 09:48:19;;;;;;;12.23;8.00;;;8.30;99.90;;;;;;5017251;28;20659;-64
2023/12/17 09:50:45;;;;;;;10.52;8.13;;;8.40;99.90;;;;;;5014319;28;20030;-63
2023/12/17 09:53:11;;;;;;;9.73;7.38;;;8.40;99.90;;;;;;5016774;28;20481;-63
2023/12/17 09:55:37;;;;;;;10.90;7.60;;;8.40;99.90;;;;;;5014912;28;20045;-63
2023/12/17 09:58:04;;;;;;;8.80;7.93;;;8.60;99.90;;;;;;5012487;28;20445;-64
2023/12/17 10:00:31;;;;;;;10.65;8.55;;;8.30;99.90;;;;;;5014156;28;20037;-63
2023/12/17 10:03:04;;;;;;;11.00;8.35;;;8.10;99.90;;;;;;5016498;28;20030;-63
2023/12/17 10:05:30;;;;;;;10.82;8.60;;;7.80;99.90;;;;;;5015192;28;20123;-64
2023/12/17 10:07:56;;;;;;;14.23;7.68;;;7.40;99.90;;;;;;5013428;28;20022;-63
2023/12/17 10:10:22;;;;;;;9.20;8.30;;;7.40;99.90;;;;;;5015111;28;20040;-63
2023/12/17 10:12:48;;;;;;;9.52;8.55;;;7.30;99.90;;;;;;5017699;28;20036;-63
2023/12/17 10:15:13;;;;;;;11.80;8.82;;;7.40;99.90;;;;;;5014551;28;20037;-63
2023/12/17 10:17:40;;;;;;;12.00;8.80;;;7.50;99.90;;;;;;5015267;28;20141;-63
2023/12/17 10:20:07;;;;;;;10.98;8.25;;;7.50;99.90;;;;;;5019206;28;20060;-61
2023/12/17 10:22:32;;;;;;;11.05;8.07;;;7.50;99.90;;;;;;5019210;28;20061;-63
2023/12/17 10:24:58;;;;;;;10.35;8.52;;;7.40;99.90;;;;;;5017961;28;20053;-63
2023/12/17 10:27:24;;;;;;;8.75;7.38;;;7.40;99.90;;;;;;5020404;28;20025;-62
2023/12/17 10:29:51;;;;;;;12.07;8.30;;;7.50;99.90;;;;;;5024974;28;20038;-63
2023/12/17 10:32:26;;;;;;;9.68;8.68;;;7.50;99.90;;;;;;5026902;28;20037;-64
2023/12/17 10:34:53;;;;;;;9.43;8.25;;;7.60;99.90;;;;;;5017186;28;20038;-63
2023/12/17 10:37:20;;;;;;;11.77;7.60;;;7.60;99.90;;;;;;5022727;28;20482;-63
2023/12/17 10:39:50;;;;;;;9.57;7.82;;;7.50;99.90;;;;;;5020985;28;20375;-62
2023/12/17 10:42:17;;;;;;;9.07;7.78;;;7.30;99.90;;;;;;5024407;28;20124;-63
2023/12/17 10:44:48;;;;;;;9.73;7.70;;;7.30;99.90;;;;;;5022915;28;20038;-62
2023/12/17 10:47:21;;;;;;;14.02;8.18;;;7.30;99.90;;;;;;5025326;28;20025;-63
2023/12/17 10:49:47;;;;;;;8.18;7.38;;;7.20;99.90;;;;;;5023128;28;20046;-63
2023/12/17 10:52:13;;;;;;;9.50;7.18;;;7.20;99.90;;;;;;5019652;28;20032;-64
2023/12/17 10:54:39;;;;;;;9.27;7.15;;;7.30;99.90;;;;;;5019125;28;20038;-63
2023/12/17 10:57:11;;;;;;;10.55;7.13;;;7.30;99.90;;;;;;5018859;28;20629;-64
2023/12/17 10:59:37;;;;;;;;;;;7.30;99.90;;;;;;5020028;28;20495;-63
2023/12/17 11:02:05;;;;;;;9.60;8.75;;;7.30;99.90;;;;;;5022373;28;19920;-63
2023/12/17 11:04:31;;;;;;;10.07;7.65;;;7.20;99.90;;;;;;5020772;28;20034;-63
2023/12/17 11:06:57;;;;;;;11.02;9.63;;;7.10;99.90;;;;;;5019185;28;20037;-63
2023/12/17 11:09:24;;;;;;;11.63;9.60;;;7.00;99.90;;;;;;5022087;28;20030;-63
2023/12/17 11:11:51;;;;;;;10.93;8.23;;;7.10;99.90;;;;;;5025480;28;20030;-62
2023/12/17 11:14:17;;;;;;;12.75;10.07;;;7.00;99.90;;;;;;5018513;28;20504;-63
2023/12/17 11:16:44;;;;;;;14.95;8.00;;;6.90;99.90;;;;;;5020775;28;20529;-62
2023/12/17 11:19:12;;;;;;;14.52;8.30;;;7.00;99.90;;;;;;5019603;28;20026;-63
2023/12/17 11:21:40;;;;;;;9.38;8.43;;;6.90;99.90;;;;;;5020772;28;20030;-63
2023/12/17 11:24:07;;;;;;;9.88;7.97;;;6.90;99.90;;;;;;5023707;28;21001;-62
2023/12/17 11:26:44;;;;;;;12.88;8.20;;;6.90;99.90;;;;;;5017518;28;20510;-64
2023/12/17 11:29:33;;;;;;;11.15;8.10;;;6.80;99.90;;;;;;5019832;28;20539;-63
2023/12/17 11:32:01;;;;;;;13.73;8.40;;;6.80;99.90;;;;;;5017841;28;20023;-63
2023/12/17 11:34:29;;;;;;;9.00;7.50;;;6.90;99.90;;;;;;5017679;28;20088;-66
2023/12/17 11:36:56;;;;;;;10.18;8.05;;;7.00;99.90;;;;;;5022450;28;20044;-66
2023/12/17 11:39:22;;;;;;;13.95;9.25;;;7.10;99.90;;;;;;5023331;28;20057;-65
2023/12/17 11:41:48;;;;;;;14.90;7.88;;;7.10;99.90;;;;;;5021227;28;20080;-66
2023/12/17 11:44:13;;;;;;;8.68;7.05;;;7.20;99.90;;;;;;5022021;28;20025;-65
2023/12/17 11:46:39;;;;;;;12.18;7.15;;;7.20;99.90;;;;;;5021319;28;20034;-66
2023/12/17 11:49:05;;;;;;;13.20;8.10;;;7.20;99.90;;;;;;5021273;28;20013;-66
2023/12/17 11:51:31;;;;;;;13.43;8.07;;;7.30;99.90;;;;;;5024774;28;20018;-65
2023/12/17 11:53:57;;;;;;;11.45;8.15;;;7.50;99.90;;;;;;5023800;28;20029;-65
2023/12/17 11:56:30;;;;;;;9.23;7.50;;;7.50;99.90;;;;;;5021069;28;20038;-65
2023/12/17 11:58:56;;;;;;;9.43;7.25;;;7.50;99.90;;;;;;5021640;28;20035;-66
2023/12/17 12:01:22;;;;;;;9.68;7.15;;;7.50;99.90;;;;;;5023915;28;20035;-65
2023/12/17 12:03:48;;;;;;;15.77;9.48;;;7.60;99.90;;;;;;5022044;28;20018;-64
2023/12/17 12:06:14;;;;;;;9.05;7.07;;;7.60;99.90;;;;;;5018623;28;20030;-65
2023/12/17 12:08:42;;;;;;;8.32;6.68;;;7.70;99.90;;;;;;5022003;28;20017;-66
2023/12/17 12:11:10;;;;;;;8.80;7.32;;;7.80;99.90;;;;;;5019927;28;20033;-66
2023/12/17 12:13:37;;;;;;;9.45;7.30;;;7.90;99.90;;;;;;5021638;28;20207;-63
2023/12/17 12:16:04;;;;;;;8.50;7.45;;;7.80;99.90;;;;;;5018812;28;20048;-64
2023/12/17 12:18:30;;;;;;;9.00;6.88;;;7.80;99.90;;;;;;5021595;28;20030;-63
2023/12/17 12:20:55;;;;;;;10.43;7.18;;;7.90;99.90;;;;;;5019742;28;20113;-63
2023/12/17 12:23:22;;;;;;;13.55;6.47;;;8.10;99.90;;;;;;5021736;28;20022;-63
2023/12/17 12:25:47;;;;;;;9.70;7.55;;;8.20;99.90;;;;;;5021025;28;20505;-64
2023/12/17 12:28:18;;;;;;;13.77;7.57;;;8.20;99.90;;;;;;5019920;28;20037;-63
2023/12/17 12:30:44;;;;;;;7.18;5.85;;;8.40;99.90;;;;;;5021773;28;20031;-62
2023/12/17 12:33:18;;;;;;;9.40;6.40;;;8.40;99.90;;;;;;5019915;28;20592;-64
2023/12/17 12:35:44;;;;;;;12.13;5.80;;;8.60;99.90;;;;;;5021959;28;20033;-64
2023/12/17 12:38:24;;;;;;;8.75;6.32;;;8.70;99.90;;;;;;5021848;28;20036;-63